Time;durP1;ratioP1;P1;durP2;ratioP2;P2;SDS_P1;SDS_P2;PMS_P1;PMS_P2;Temp;Humidity;BMP_temperature;BMP_pressure;BME280_temperature;BME280_humidity;BME280_pressure;Samples;Min_cycle;Max_cycle;Signal;HPM_P1;HPM_P2
2022/06/15 00:03:21;;;;;;;1.87;1.57;;;18.70;59.10;;;;;;10484398;28;20223;-72
2022/06/15 00:08:22;;;;;;;4.53;1.90;;;18.60;59.60;;;;;;10478858;28;20311;-72
2022/06/15 00:13:23;;;;;;;5.27;1.83;;;18.50;60.00;;;;;;10481511;28;20307;-72
2022/06/15 00:18:28;;;;;;;7.13;2.97;;;18.40;60.60;;;;;;10489911;28;20223;-71
2022/06/15 00:23:29;;;;;;;11.00;3.80;;;18.30;61.20;;;;;;10492865;28;20211;-71
2022/06/15 00:28:31;;;;;;;11.60;4.37;;;18.20;62.20;;;;;;10477708;28;20219;-71
2022/06/15 00:33:32;;;;;;;8.23;3.80;;;18.10;63.10;;;;;;10486811;28;20353;-71
2022/06/15 00:38:37;;;;;;;7.57;3.30;;;18.10;63.60;;;;;;10478801;28;20223;-72
2022/06/15 00:43:39;;;;;;;6.77;3.07;;;18.00;64.30;;;;;;10478174;28;20211;-72
2022/06/15 00:48:44;;;;;;;5.63;2.60;;;17.80;64.80;;;;;;10485467;28;20581;-72
2022/06/15 00:53:47;;;;;;;8.93;2.57;;;17.70;65.80;;;;;;10476430;28;20582;-70
2022/06/15 00:58:51;;;;;;;3.13;2.17;;;17.50;66.80;;;;;;10476826;28;20312;-71
2022/06/15 01:03:57;;;;;;;4.83;2.40;;;17.40;67.50;;;;;;10490221;28;20211;-71
2022/06/15 01:09:08;;;;;;;3.63;2.17;;;17.40;67.80;;;;;;10477218;28;20224;-71
2022/06/15 01:14:21;;;;;;;5.53;2.10;;;17.30;68.10;;;;;;10478089;28;20265;-71
2022/06/15 01:19:57;;;;;;;3.53;2.00;;;17.30;68.50;;;;;;10482365;28;20219;-71
2022/06/15 01:25:26;;;;;;;9.13;3.00;;;17.30;69.00;;;;;;10477714;28;20211;-70
2022/06/15 01:30:35;;;;;;;5.33;2.90;;;17.20;69.60;;;;;;10411548;28;20223;-71
2022/06/15 01:35:44;;;;;;;6.93;2.70;;;17.20;70.10;;;;;;10479417;28;20273;-71
2022/06/15 01:40:53;;;;;;;4.87;3.03;;;17.10;70.70;;;;;;10481024;28;20251;-71
2022/06/15 01:45:57;;;;;;;4.57;2.70;;;17.00;71.40;;;;;;10485263;28;20223;-71
2022/06/15 01:51:09;;;;;;;7.13;2.83;;;16.90;71.80;;;;;;10482481;28;20755;-70
2022/06/15 01:56:10;;;;;;;6.40;2.87;;;16.90;72.10;;;;;;10469710;28;20702;-71
2022/06/15 02:01:20;;;;;;;3.90;2.90;;;16.90;72.40;;;;;;10475226;28;20211;-71
2022/06/15 02:06:47;;;;;;;2.50;2.20;;;16.80;73.00;;;;;;10477967;28;20215;-71
2022/06/15 02:11:48;;;;;;;5.73;2.50;;;16.70;73.60;;;;;;10474680;28;20215;-72
2022/06/15 02:17:07;;;;;;;4.70;2.67;;;16.50;74.20;;;;;;10479980;28;20232;-72
2022/06/15 02:22:12;;;;;;;2.40;1.80;;;16.40;75.20;;;;;;10466927;28;20315;-72
2022/06/15 02:27:14;;;;;;;2.40;1.93;;;16.30;75.80;;;;;;10483239;28;20306;-72
2022/06/15 02:32:17;;;;;;;2.70;2.10;;;16.20;76.60;;;;;;10465687;28;20688;-73
2022/06/15 02:37:18;;;;;;;11.47;3.27;;;16.20;77.20;;;;;;10494840;28;20814;-71
2022/06/15 02:42:35;;;;;;;9.70;2.80;;;16.20;77.60;;;;;;10475989;28;20311;-72
2022/06/15 02:47:39;;;;;;;4.00;1.80;;;16.10;78.30;;;;;;10485168;28;20245;-71
2022/06/15 02:53:08;;;;;;;6.70;2.20;;;15.90;79.10;;;;;;10496362;28;20590;-71
2022/06/15 02:58:33;;;;;;;3.60;2.20;;;15.80;80.50;;;;;;10481325;28;20219;-72
2022/06/15 03:03:34;;;;;;;4.47;1.80;;;15.80;81.30;;;;;;10478745;28;20226;-71
2022/06/15 03:08:35;;;;;;;4.20;2.20;;;15.70;82.10;;;;;;10496790;28;20219;-73
2022/06/15 03:13:37;;;;;;;4.77;2.10;;;15.70;82.80;;;;;;10494781;28;20332;-72
2022/06/15 03:18:37;;;;;;;5.33;2.10;;;15.70;83.40;;;;;;10488057;28;20307;-72
2022/06/15 03:23:38;;;;;;;4.10;2.17;;;15.70;84.20;;;;;;10484137;28;20623;-72
2022/06/15 03:28:39;;;;;;;5.23;2.23;;;15.60;85.00;;;;;;10487458;28;20306;-71
2022/06/15 03:33:40;;;;;;;3.50;2.17;;;15.60;85.70;;;;;;10486297;28;20220;-72
2022/06/15 03:38:41;;;;;;;6.33;2.10;;;15.60;86.40;;;;;;10485594;28;20226;-71
2022/06/15 03:43:42;;;;;;;3.30;2.00;;;15.50;86.80;;;;;;10486318;28;20231;-72
2022/06/15 03:48:43;;;;;;;3.40;2.20;;;15.60;88.00;;;;;;10486397;28;20301;-71
2022/06/15 03:53:43;;;;;;;4.97;2.30;;;15.70;87.70;;;;;;10482314;28;20805;-72
2022/06/15 03:58:45;;;;;;;8.97;2.30;;;15.70;87.50;;;;;;10478165;28;20269;-72
2022/06/15 04:03:46;;;;;;;5.30;2.20;;;15.70;87.50;;;;;;10483403;28;20212;-72
2022/06/15 04:08:47;;;;;;;4.70;1.87;;;15.90;87.30;;;;;;10486091;28;20209;-72
2022/06/15 04:13:47;;;;;;;5.53;2.40;;;16.00;86.80;;;;;;10478951;28;20215;-72
2022/06/15 04:18:48;;;;;;;3.67;2.20;;;16.10;86.20;;;;;;10489574;28;20718;-71
2022/06/15 04:23:48;;;;;;;7.70;2.53;;;16.20;85.00;;;;;;10487186;28;20212;-70
2022/06/15 04:28:50;;;;;;;6.20;2.40;;;16.30;84.30;;;;;;10488456;28;20229;-70
2022/06/15 04:33:50;;;;;;;5.37;2.30;;;16.40;82.90;;;;;;10486992;28;20322;-70
2022/06/15 04:38:51;;;;;;;6.80;2.27;;;16.80;81.50;;;;;;10477511;28;20233;-69
2022/06/15 04:43:52;;;;;;;4.03;2.10;;;17.30;78.90;;;;;;10468236;28;20219;-68
2022/06/15 04:48:52;;;;;;;5.00;2.27;;;17.30;77.70;;;;;;10476410;28;20243;-70
2022/06/15 04:53:54;;;;;;;5.20;2.40;;;17.30;76.90;;;;;;10484011;28;20211;-70
2022/06/15 04:58:54;;;;;;;6.50;2.40;;;17.30;76.70;;;;;;10483580;28;20219;-70
2022/06/15 05:03:55;;;;;;;4.93;2.77;;;17.60;76.20;;;;;;10471732;28;20234;-70
2022/06/15 05:08:57;;;;;;;3.90;2.20;;;19.20;71.60;;;;;;10484038;28;20229;-68
2022/06/15 05:13:58;;;;;;;5.20;2.23;;;21.20;62.30;;;;;;10481117;28;20254;-69
2022/06/15 05:18:59;;;;;;;5.23;2.10;;;22.40;57.50;;;;;;10482362;28;20622;-69
2022/06/15 05:23:59;;;;;;;2.87;2.07;;;23.00;55.30;;;;;;10475128;28;20204;-67
2022/06/15 05:29:00;;;;;;;7.07;1.97;;;23.40;53.70;;;;;;10481552;28;20745;-69
2022/06/15 05:34:00;;;;;;;4.80;2.10;;;23.90;53.20;;;;;;10484462;28;20230;-69
2022/06/15 05:39:03;;;;;;;4.07;2.27;;;24.60;51.50;;;;;;10489119;28;20215;-69
2022/06/15 05:44:18;;;;;;;4.83;2.33;;;25.40;49.50;;;;;;10472943;28;20276;-68
2022/06/15 05:49:18;;;;;;;7.27;2.43;;;26.10;48.20;;;;;;10474722;28;20949;-69
2022/06/15 05:54:19;;;;;;;8.20;2.10;;;26.50;47.50;;;;;;10468108;28;20270;-69
2022/06/15 05:59:20;;;;;;;5.93;2.33;;;27.00;46.70;;;;;;10482750;28;20314;-70
2022/06/15 06:04:20;;;;;;;5.63;2.30;;;27.60;45.80;;;;;;10472995;28;20219;-69
2022/06/15 06:09:21;;;;;;;8.17;2.40;;;27.90;44.90;;;;;;10469864;28;20222;-69
2022/06/15 06:14:22;;;;;;;4.30;2.27;;;28.30;44.30;;;;;;10479659;28;20296;-71
2022/06/15 06:19:22;;;;;;;4.23;2.20;;;28.90;43.20;;;;;;10474464;28;20264;-70
2022/06/15 06:24:23;;;;;;;6.03;2.90;;;29.30;42.50;;;;;;10480154;28;20216;-69
2022/06/15 06:29:23;;;;;;;9.60;2.70;;;29.20;42.40;;;;;;10480866;28;20224;-69
2022/06/15 06:34:25;;;;;;;5.07;2.57;;;30.30;41.70;;;;;;10481244;28;20292;-69
2022/06/15 06:39:29;;;;;;;5.63;2.53;;;30.20;41.60;;;;;;10485305;28;20230;-69
2022/06/15 06:44:30;;;;;;;3.00;2.33;;;30.00;41.30;;;;;;10483183;28;20222;-70
2022/06/15 06:49:30;;;;;;;6.20;2.90;;;31.00;40.10;;;;;;10477664;28;20227;-70
2022/06/15 06:54:31;;;;;;;7.37;2.90;;;31.60;39.50;;;;;;10476004;28;20356;-71
2022/06/15 06:59:32;;;;;;;6.13;2.40;;;31.10;39.80;;;;;;10476679;28;20239;-71
2022/06/15 07:04:33;;;;;;;6.87;2.87;;;31.70;39.30;;;;;;10474960;28;20855;-70
2022/06/15 07:09:34;;;;;;;5.20;3.10;;;31.20;39.60;;;;;;10483635;28;20226;-70
2022/06/15 07:14:35;;;;;;;5.77;2.70;;;32.00;39.20;;;;;;10471813;28;20243;-70
2022/06/15 07:19:35;;;;;;;4.70;2.30;;;32.50;38.20;;;;;;10481010;28;20265;-69
2022/06/15 07:24:36;;;;;;;4.20;2.30;;;32.60;37.70;;;;;;10487651;28;20207;-70
2022/06/15 07:29:37;;;;;;;4.27;2.20;;;33.60;37.20;;;;;;10491316;28;20609;-70
2022/06/15 07:34:37;;;;;;;2.77;2.10;;;33.60;37.00;;;;;;10470697;28;20266;-69
2022/06/15 07:39:38;;;;;;;4.70;2.27;;;34.50;36.00;;;;;;10480735;28;20219;-70
2022/06/15 07:44:39;;;;;;;7.20;2.40;;;35.40;34.90;;;;;;10473655;28;20222;-70
2022/06/15 07:49:57;;;;;;;5.37;2.40;;;36.20;33.90;;;;;;10480304;28;20785;-71
2022/06/15 07:54:57;;;;;;;8.57;2.43;;;36.90;32.80;;;;;;10475995;28;20219;-70
2022/06/15 07:59:58;;;;;;;8.47;2.90;;;36.20;32.70;;;;;;10470030;28;20219;-70
2022/06/15 08:04:59;;;;;;;6.17;2.63;;;36.30;32.40;;;;;;10476960;28;20263;-72
2022/06/15 08:10:00;;;;;;;4.80;2.40;;;35.30;34.10;;;;;;10468677;28;20314;-71
2022/06/15 08:15:02;;;;;;;3.03;2.00;;;35.30;34.40;;;;;;10468620;28;20259;-70
2022/06/15 08:20:29;;;;;;;4.97;2.37;;;37.50;32.70;;;;;;10476318;28;20299;-70
2022/06/15 08:25:36;;;;;;;5.43;2.63;;;39.50;29.50;;;;;;10462154;28;20572;-70
2022/06/15 08:30:37;;;;;;;4.93;2.60;;;39.60;29.00;;;;;;10471954;28;20238;-71
2022/06/15 08:35:38;;;;;;;4.50;2.47;;;40.90;28.80;;;;;;10470775;28;20212;-70
2022/06/15 08:40:51;;;;;;;6.60;2.97;;;41.50;27.40;;;;;;10482646;28;20614;-69
2022/06/15 08:45:57;;;;;;;4.82;2.72;;;40.70;28.00;;;;;;10473941;28;20211;-70
2022/06/15 08:51:07;;;;;;;6.85;2.72;;;42.30;26.70;;;;;;10468756;28;20235;-70
2022/06/15 08:56:29;;;;;;;6.53;2.65;;;41.90;26.30;;;;;;10465756;28;20624;-69
2022/06/15 09:01:54;;;;;;;11.43;3.70;;;42.90;26.00;;;;;;10472828;28;20256;-70
2022/06/15 09:07:14;;;;;;;6.22;2.78;;;40.80;27.30;;;;;;10473240;28;20239;-71
2022/06/15 09:17:48;;;;;;;7.45;3.10;;;45.80;25.00;;;;;;10471493;28;20219;-70
2022/06/15 09:22:57;;;;;;;5.70;3.03;;;44.50;24.80;;;;;;10476304;28;20223;-70
2022/06/15 09:28:04;;;;;;;6.10;2.88;;;44.10;25.90;;;;;;10466144;28;20226;-70
2022/06/15 09:33:20;;;;;;;6.50;2.80;;;44.10;25.30;;;;;;10472319;28;20223;-70
2022/06/15 09:38:20;;;;;;;8.38;2.60;;;43.40;26.30;;;;;;10467709;28;20228;-69
2022/06/15 09:43:46;;;;;;;5.15;3.05;;;44.80;25.10;;;;;;10472394;28;20211;-69
2022/06/15 09:49:02;;;;;;;6.32;2.90;;;46.70;24.30;;;;;;10478948;28;20326;-69
2022/06/15 09:54:20;;;;;;;5.30;2.95;;;45.90;24.30;;;;;;10473570;28;20206;-70
2022/06/15 09:59:22;;;;;;;3.83;2.60;;;45.50;23.50;;;;;;10487968;28;20260;-70
2022/06/15 10:04:30;;;;;;;5.40;2.90;;;45.60;24.00;;;;;;10474464;28;20219;-70
2022/06/15 10:09:35;;;;;;;6.60;2.75;;;46.30;23.80;;;;;;10484451;28;20657;-70
2022/06/15 10:14:37;;;;;;;5.30;2.67;;;43.80;24.90;;;;;;10477549;28;20236;-69
2022/06/15 10:19:38;;;;;;;5.50;3.13;;;45.90;24.40;;;;;;10477540;28;20219;-69
2022/06/15 10:24:43;;;;;;;6.15;3.33;;;47.20;22.90;;;;;;10476621;28;20222;-69
2022/06/15 10:29:54;;;;;;;4.70;3.25;;;48.60;22.80;;;;;;10477836;28;20231;-70
2022/06/15 10:35:18;;;;;;;3.05;2.20;;;47.30;23.20;;;;;;10482298;28;20242;-70
2022/06/15 10:40:33;;;;;;;4.97;2.72;;;45.40;24.70;;;;;;10474456;28;20228;-71
2022/06/15 10:45:40;;;;;;;3.13;2.38;;;45.90;24.00;;;;;;10476762;28;20211;-70
2022/06/15 10:50:51;;;;;;;2.63;2.42;;;43.70;23.70;;;;;;10469198;28;20211;-71
2022/06/15 11:07:01;;;;;;;2.88;2.25;;;43.10;24.10;;;;;;10483521;28;20672;-70
2022/06/15 11:12:20;;;;;;;6.47;2.45;;;44.80;23.30;;;;;;10478374;28;20226;-70
2022/06/15 11:22:52;;;;;;;3.58;2.28;;;47.00;21.70;;;;;;10472878;28;20715;-70
2022/06/15 11:28:03;;;;;;;4.75;2.20;;;47.30;22.10;;;;;;10484541;28;20273;-70
2022/06/15 11:33:24;;;;;;;4.30;2.28;;;45.10;22.90;;;;;;10471164;28;20248;-69
2022/06/15 11:38:45;;;;;;;5.30;2.20;;;42.60;23.80;;;;;;10476834;28;20234;-69
2022/06/15 11:43:47;;;;;;;2.70;2.00;;;38.10;26.60;;;;;;10472923;28;20219;-69
2022/06/15 11:49:12;;;;;;;2.73;2.30;;;35.60;29.50;;;;;;10475683;28;20231;-70
2022/06/15 11:54:41;;;;;;;5.73;2.43;;;34.80;30.60;;;;;;10470316;28;20222;-70
2022/06/15 12:00:00;;;;;;;6.57;2.57;;;33.50;31.40;;;;;;10473229;28;20325;-68
2022/06/15 12:05:10;;;;;;;4.57;2.27;;;32.30;33.50;;;;;;10484371;28;20223;-69
2022/06/15 12:10:20;;;;;;;3.17;2.13;;;32.10;34.20;;;;;;10467405;28;20277;-69
2022/06/15 12:15:41;;;;;;;2.87;2.10;;;31.40;34.50;;;;;;10476861;28;20237;-69
2022/06/15 12:20:58;;;;;;;6.77;2.50;;;31.40;33.90;;;;;;10473471;28;20729;-69
2022/06/15 12:26:04;;;;;;;4.57;2.50;;;31.10;34.30;;;;;;10477619;28;20217;-69
2022/06/15 12:31:30;;;;;;;7.30;2.47;;;30.80;35.30;;;;;;10475942;28;20219;-68
2022/06/15 12:36:43;;;;;;;6.53;2.33;;;30.90;35.40;;;;;;10470716;28;20284;-69
2022/06/15 12:47:09;;;;;;;2.50;2.30;;;31.40;34.80;;;;;;10474689;28;20215;-69
2022/06/15 12:52:23;;;;;;;5.27;2.70;;;31.50;34.60;;;;;;10467551;28;20315;-69
2022/06/15 12:57:57;;;;;;;2.47;2.17;;;31.60;34.50;;;;;;10475741;28;20760;-70
2022/06/15 13:03:04;;;;;;;6.93;2.53;;;31.60;34.80;;;;;;10475535;28;20572;-69
2022/06/15 13:08:17;;;;;;;4.07;2.17;;;31.80;34.60;;;;;;10473898;28;20227;-69
2022/06/15 13:13:30;;;;;;;5.17;2.20;;;31.90;34.70;;;;;;10468192;28;20734;-69
2022/06/15 13:18:38;;;;;;;7.43;2.47;;;31.90;34.20;;;;;;10473696;28;20732;-69
2022/06/15 13:23:44;;;;;;;4.60;2.33;;;32.00;34.80;;;;;;10478656;28;20279;-68
2022/06/15 13:29:05;;;;;;;4.73;2.20;;;31.80;35.00;;;;;;10474407;28;20222;-69
2022/06/15 13:34:08;;;;;;;4.97;2.30;;;31.70;34.40;;;;;;10460980;28;20235;-69
2022/06/15 13:39:54;;;;;;;5.53;2.30;;;31.70;34.00;;;;;;10468073;28;20224;-69
2022/06/15 13:45:13;;;;;;;7.63;2.30;;;31.60;34.60;;;;;;10457455;28;20276;-70
2022/06/15 13:50:17;;;;;;;3.87;2.30;;;31.60;35.00;;;;;;10482632;28;20287;-70
2022/06/15 13:55:44;;;;;;;4.80;2.30;;;31.50;34.70;;;;;;10490743;28;20231;-70
2022/06/15 14:00:57;;;;;;;6.23;2.40;;;31.40;34.70;;;;;;10489673;28;20246;-70
2022/06/15 14:06:25;;;;;;;3.83;2.40;;;31.20;34.40;;;;;;10490121;28;20265;-69
2022/06/15 14:11:53;;;;;;;2.80;1.80;;;31.20;34.90;;;;;;10475159;28;20223;-69
2022/06/15 14:17:11;;;;;;;2.30;1.90;;;31.30;34.90;;;;;;10489576;28;20223;-70
2022/06/15 14:22:18;;;;;;;3.63;2.07;;;31.40;35.00;;;;;;10480657;28;20211;-70
2022/06/15 14:27:29;;;;;;;6.43;2.27;;;31.40;34.60;;;;;;10483636;28;20647;-70
2022/06/15 14:32:37;;;;;;;3.43;2.43;;;31.50;35.10;;;;;;10495621;28;20261;-70
2022/06/15 14:37:39;;;;;;;3.70;2.07;;;31.70;34.90;;;;;;10495740;28;20226;-70
2022/06/15 14:42:54;;;;;;;5.17;2.57;;;31.60;34.50;;;;;;10496750;28;20264;-70
2022/06/15 14:47:58;;;;;;;3.60;2.20;;;31.50;34.50;;;;;;10494536;28;20689;-70
2022/06/15 14:53:10;;;;;;;2.03;1.83;;;31.50;34.30;;;;;;10490817;28;20247;-70
2022/06/15 14:58:18;;;;;;;5.03;1.80;;;31.60;35.10;;;;;;10485252;28;20231;-69
2022/06/15 15:03:30;;;;;;;3.00;2.03;;;31.50;33.80;;;;;;10493410;28;20683;-69
2022/06/15 15:08:36;;;;;;;8.13;2.00;;;31.40;34.00;;;;;;10487632;28;20230;-69
2022/06/15 15:13:59;;;;;;;3.03;1.83;;;31.40;33.70;;;;;;10493804;28;20900;-68
2022/06/15 15:19:04;;;;;;;3.57;1.77;;;31.40;33.30;;;;;;10484948;28;20231;-68
2022/06/15 15:24:17;;;;;;;2.80;2.10;;;31.40;33.80;;;;;;10485388;28;20216;-69
2022/06/15 15:35:00;;;;;;;5.17;2.10;;;31.30;32.50;;;;;;10493700;28;20219;-68
2022/06/15 15:40:02;;;;;;;3.07;1.90;;;31.30;32.60;;;;;;10472561;28;20219;-69
2022/06/15 15:45:03;;;;;;;4.80;2.10;;;31.20;32.60;;;;;;10489301;28;20576;-69
2022/06/15 15:50:06;;;;;;;5.27;2.10;;;31.00;34.10;;;;;;10479309;28;20261;-69
2022/06/15 15:55:07;;;;;;;3.90;1.77;;;31.00;34.10;;;;;;10475102;28;20225;-69
2022/06/15 16:00:11;;;;;;;4.47;1.90;;;31.00;34.10;;;;;;10477227;28;20210;-69
2022/06/15 16:05:12;;;;;;;3.50;1.70;;;30.90;35.00;;;;;;10487545;28;20176;-71
2022/06/15 16:10:16;;;;;;;4.53;2.10;;;30.80;35.00;;;;;;10484361;28;20266;-71
2022/06/15 16:15:18;;;;;;;6.27;1.83;;;30.80;34.20;;;;;;10488774;28;20186;-72
2022/06/15 16:20:24;;;;;;;4.43;2.30;;;30.70;34.30;;;;;;10487116;28;20546;-69
2022/06/15 16:25:27;;;;;;;8.17;2.07;;;30.60;34.20;;;;;;10490681;28;20223;-68
2022/06/15 16:30:29;;;;;;;2.10;1.77;;;30.50;33.90;;;;;;10485462;28;20935;-69
2022/06/15 16:35:33;;;;;;;3.77;1.93;;;30.40;33.40;;;;;;10489396;28;20226;-69
2022/06/15 16:40:36;;;;;;;3.40;1.80;;;30.30;33.10;;;;;;10478455;28;20788;-69
2022/06/15 16:45:37;;;;;;;2.73;2.03;;;30.20;33.40;;;;;;10483237;28;20211;-69
2022/06/15 16:50:39;;;;;;;2.97;1.80;;;30.10;34.10;;;;;;10486575;28;20214;-69
2022/06/15 16:55:43;;;;;;;4.33;1.80;;;30.10;33.90;;;;;;10490334;28;20579;-70
2022/06/15 17:00:44;;;;;;;4.33;1.93;;;30.00;33.90;;;;;;10481467;28;20231;-72
2022/06/15 17:05:45;;;;;;;3.03;1.80;;;29.90;33.20;;;;;;10481221;28;20219;-73
2022/06/15 17:10:47;;;;;;;4.10;1.73;;;29.90;33.90;;;;;;10479980;28;20223;-69
2022/06/15 17:15:48;;;;;;;4.23;2.40;;;29.70;33.60;;;;;;10487259;28;20599;-69
2022/06/15 17:20:49;;;;;;;4.17;2.53;;;29.60;33.60;;;;;;10489783;28;20227;-68
2022/06/15 17:25:51;;;;;;;3.63;1.83;;;29.50;33.40;;;;;;10484242;28;20208;-69
2022/06/15 17:30:51;;;;;;;4.10;1.63;;;29.40;34.00;;;;;;10481593;28;20344;-70
2022/06/15 17:35:52;;;;;;;3.37;1.60;;;29.30;33.10;;;;;;10484168;28;20238;-70
2022/06/15 17:40:53;;;;;;;3.80;1.90;;;29.20;32.70;;;;;;10484277;28;20316;-69
2022/06/15 17:45:53;;;;;;;2.87;1.90;;;29.00;33.90;;;;;;10484658;28;20213;-69
2022/06/15 17:50:54;;;;;;;3.90;1.90;;;28.90;34.20;;;;;;10484947;28;20785;-70
2022/06/15 17:55:55;;;;;;;3.03;1.80;;;28.70;34.50;;;;;;10479459;28;20222;-69
2022/06/15 18:00:56;;;;;;;2.90;1.80;;;28.40;35.20;;;;;;10475280;28;20276;-70
2022/06/15 18:05:57;;;;;;;3.33;1.80;;;28.20;36.10;;;;;;10482122;28;20219;-72
2022/06/15 18:11:08;;;;;;;4.17;1.73;;;28.00;37.10;;;;;;10488792;28;20211;-69
2022/06/15 18:16:36;;;;;;;2.20;1.60;;;27.90;37.50;;;;;;10491106;28;20223;-69
2022/06/15 18:21:40;;;;;;;1.73;1.63;;;27.90;38.70;;;;;;10486519;28;20250;-68
2022/06/15 18:26:42;;;;;;;2.63;1.90;;;28.00;39.10;;;;;;10496689;28;20219;-69
2022/06/15 18:31:48;;;;;;;5.17;2.17;;;27.90;38.90;;;;;;10488821;28;20223;-68
2022/06/15 18:36:51;;;;;;;5.20;2.13;;;27.80;39.50;;;;;;10490877;28;20216;-68
2022/06/15 18:41:56;;;;;;;4.50;2.87;;;27.70;40.20;;;;;;10494401;28;20222;-68
2022/06/15 18:52:19;;;;;;;7.20;3.03;;;27.30;41.30;;;;;;10487429;28;20216;-68
2022/06/15 18:57:21;;;;;;;5.00;2.90;;;27.00;42.50;;;;;;10473110;28;20228;-68
2022/06/15 19:02:23;;;;;;;5.50;3.10;;;26.70;43.30;;;;;;10482391;28;20222;-68
2022/06/15 19:07:25;;;;;;;4.40;3.20;;;26.50;45.30;;;;;;10483158;28;20207;-67
2022/06/15 19:12:28;;;;;;;6.33;3.10;;;26.20;45.90;;;;;;10480617;28;20224;-68
2022/06/15 19:17:30;;;;;;;6.37;3.33;;;26.00;46.60;;;;;;10477565;28;20644;-66
2022/06/15 19:22:31;;;;;;;3.60;2.90;;;25.80;49.50;;;;;;10479848;28;20218;-68
2022/06/15 19:27:35;;;;;;;9.07;3.43;;;25.60;49.50;;;;;;10475563;28;20220;-67
2022/06/15 19:32:39;;;;;;;6.20;3.90;;;25.40;49.90;;;;;;10477010;28;20923;-69
2022/06/15 19:37:40;;;;;;;3.20;2.90;;;25.20;51.00;;;;;;10480685;28;20231;-68
2022/06/15 19:42:43;;;;;;;6.30;3.00;;;25.00;51.20;;;;;;10481010;28;20553;-68
2022/06/15 19:47:44;;;;;;;4.47;3.23;;;24.90;50.30;;;;;;10474048;28;20653;-68
2022/06/15 19:52:45;;;;;;;5.73;3.80;;;24.80;49.40;;;;;;10483028;28;20218;-68
2022/06/15 19:57:46;;;;;;;7.10;3.30;;;24.60;50.80;;;;;;10470863;28;20236;-68
2022/06/15 20:02:48;;;;;;;4.87;3.33;;;24.50;52.30;;;;;;10480515;28;20299;-68
2022/06/15 20:07:49;;;;;;;8.57;3.60;;;24.30;53.20;;;;;;10476375;28;20767;-69
2022/06/15 20:12:51;;;;;;;8.57;3.60;;;24.30;54.20;;;;;;10476263;28;20265;-69
2022/06/15 20:17:55;;;;;;;4.63;3.67;;;24.10;54.70;;;;;;10477906;28;20219;-68
2022/06/15 20:23:04;;;;;;;12.57;4.60;;;24.00;54.60;;;;;;10471864;28;20222;-69
2022/06/15 20:28:10;;;;;;;18.93;5.73;;;23.90;54.90;;;;;;10468875;28;20215;-68
2022/06/15 20:33:10;;;;;;;26.20;5.10;;;23.90;55.00;;;;;;10486191;28;20215;-70
2022/06/15 20:38:11;;;;;;;10.43;3.93;;;23.90;54.80;;;;;;10469722;28;20645;-70
2022/06/15 20:43:15;;;;;;;10.87;4.00;;;23.90;54.60;;;;;;10482199;28;20212;-70
2022/06/15 20:48:16;;;;;;;12.33;3.97;;;23.90;54.70;;;;;;10470208;28;20583;-69
2022/06/15 20:53:24;;;;;;;5.60;3.00;;;23.80;54.60;;;;;;10469256;28;20236;-68
2022/06/15 20:58:25;;;;;;;6.37;3.53;;;23.80;54.90;;;;;;10458654;28;20551;-69
2022/06/15 21:03:26;;;;;;;5.90;3.47;;;23.70;54.80;;;;;;10471616;28;20216;-68
2022/06/15 21:08:27;;;;;;;6.43;3.57;;;23.80;54.50;;;;;;10475880;28;20211;-68
2022/06/15 21:18:49;;;;;;;4.23;3.37;;;23.90;54.10;;;;;;10481618;28;20222;-68
2022/06/15 21:23:50;;;;;;;6.43;3.80;;;23.90;53.70;;;;;;10475898;28;20211;-68
2022/06/15 21:28:52;;;;;;;3.83;3.30;;;23.90;53.90;;;;;;10470565;28;20208;-68
2022/06/15 21:33:56;;;;;;;6.47;3.60;;;23.90;54.30;;;;;;10474033;28;20223;-68
2022/06/15 21:39:00;;;;;;;4.30;3.30;;;23.80;54.60;;;;;;10476294;28;20660;-69
2022/06/15 21:44:01;;;;;;;8.57;3.50;;;23.70;54.30;;;;;;10469560;28;20220;-69
2022/06/15 21:49:02;;;;;;;5.63;3.47;;;23.80;53.60;;;;;;10477381;28;20232;-69
2022/06/15 21:54:04;;;;;;;3.77;3.00;;;23.80;53.70;;;;;;10467850;28;20226;-69
2022/06/15 21:59:05;;;;;;;5.90;3.40;;;23.60;54.10;;;;;;10476514;28;20240;-69
2022/06/15 22:04:06;;;;;;;4.33;3.10;;;23.50;54.80;;;;;;10476695;28;20225;-68
2022/06/15 22:09:09;;;;;;;5.57;3.50;;;23.50;54.50;;;;;;10467925;28;20216;-68
2022/06/15 22:14:10;;;;;;;4.93;3.40;;;23.50;55.80;;;;;;10468328;28;20728;-68
2022/06/15 22:19:11;;;;;;;6.60;3.60;;;23.50;55.20;;;;;;10467866;28;20270;-68
2022/06/15 22:24:13;;;;;;;4.90;3.97;;;23.50;56.20;;;;;;10475198;28;20372;-68
2022/06/15 22:29:18;;;;;;;4.90;3.70;;;23.40;57.70;;;;;;10465920;28;20227;-68
2022/06/15 22:34:19;;;;;;;5.83;3.50;;;23.30;57.80;;;;;;10466944;28;20279;-68
2022/06/15 22:39:19;;;;;;;5.17;3.63;;;23.20;58.30;;;;;;10475231;28;20250;-71
2022/06/15 22:44:20;;;;;;;5.93;3.53;;;23.10;58.80;;;;;;10479479;28;20224;-68
2022/06/15 22:54:40;;;;;;;5.30;3.13;;;22.80;59.60;;;;;;10483198;28;20212;-68
2022/06/15 22:59:41;;;;;;;6.73;3.30;;;22.70;60.40;;;;;;10477742;28;20235;-68
2022/06/15 23:04:41;;;;;;;5.37;2.90;;;22.60;60.40;;;;;;10476566;28;20287;-68
2022/06/15 23:09:42;;;;;;;6.87;3.40;;;22.60;60.40;;;;;;10481945;28;20224;-68
2022/06/15 23:14:44;;;;;;;5.63;2.90;;;22.60;60.40;;;;;;10483124;28;20226;-68
2022/06/15 23:19:44;;;;;;;5.20;2.70;;;22.60;60.70;;;;;;10480616;28;20223;-69
2022/06/15 23:24:46;;;;;;;4.53;2.67;;;22.60;61.10;;;;;;10494299;28;20211;-70
2022/06/15 23:29:54;;;;;;;5.53;3.07;;;22.50;61.50;;;;;;10475878;28;20235;-68
2022/06/15 23:34:55;;;;;;;5.93;3.13;;;22.40;62.30;;;;;;10472501;28;20223;-69
2022/06/15 23:39:55;;;;;;;6.03;3.13;;;22.30;62.70;;;;;;10478225;28;20219;-67
2022/06/15 23:47:22;;;;;;;5.83;2.87;;;22.20;63.20;;;;;;10481272;28;20216;-69
2022/06/15 23:50:21;;;;;;;5.33;3.23;;;22.10;63.60;;;;;;10471779;28;20215;-67
2022/06/15 23:55:22;;;;;;;4.10;3.13;;;22.00;64.10;;;;;;10473601;28;20344;-69
